createdAt,value
2017-09-26T15:08:04.682Z,18.85
2017-09-26T15:09:11.533Z,18.87
2017-09-26T15:10:17.664Z,18.83
2017-09-26T15:11:23.963Z,18.75
2017-09-26T15:12:31.253Z,18.55
2017-09-26T15:13:39.003Z,18.49
2017-09-26T15:14:48.219Z,18.44
2017-09-26T15:15:55.485Z,18.53
2017-09-26T15:17:04.141Z,18.49
2017-09-26T15:18:12.258Z,18.52
2017-09-26T15:19:18.964Z,18.54
2017-09-26T15:20:26.257Z,18.57
2017-09-26T15:21:33.221Z,18.60
2017-09-26T15:22:41.479Z,18.50
2017-09-26T15:23:48.098Z,18.34
2017-09-26T15:24:55.945Z,18.42
2017-09-26T15:26:03.461Z,18.48
2017-09-26T15:27:10.718Z,18.49
2017-09-26T15:28:17.438Z,18.52
2017-09-26T15:29:25.416Z,18.62
2017-09-26T15:30:31.803Z,18.65
2017-09-26T15:31:41.408Z,18.70
2017-09-26T15:32:47.981Z,18.67
2017-09-26T15:33:55.390Z,18.64
2017-09-26T15:35:03.090Z,18.60
2017-09-26T15:36:09.816Z,18.57
2017-09-26T15:37:16.309Z,18.56
2017-09-26T15:38:23.191Z,18.51
2017-09-26T15:39:30.078Z,18.46
2017-09-26T15:40:36.268Z,18.43
2017-09-26T15:41:44.253Z,18.41
2017-09-26T15:42:53.068Z,18.39
2017-09-26T15:43:59.786Z,18.36
2017-09-26T15:45:06.343Z,18.36
2017-09-26T15:46:14.883Z,18.36
2017-09-26T15:47:21.962Z,18.35
2017-09-26T15:48:28.079Z,18.33
2017-09-26T15:49:34.455Z,18.33
2017-09-26T15:50:43.151Z,18.33
2017-09-26T15:51:49.587Z,18.25
2017-09-26T15:52:55.882Z,18.28
2017-09-26T15:54:02.091Z,18.25
2017-09-26T15:55:08.472Z,18.23
2017-09-26T15:56:14.849Z,18.18
2017-09-26T15:57:21.042Z,18.18
2017-09-26T15:58:27.956Z,18.17
2017-09-26T15:59:34.132Z,18.10
2017-09-26T16:00:40.272Z,18.10
2017-09-26T16:01:46.551Z,18.09
2017-09-26T16:02:53.346Z,18.07
2017-09-26T16:04:00.897Z,18.03
2017-09-26T16:05:07.820Z,18.03
2017-09-26T16:06:14.136Z,18.01
2017-09-26T16:07:20.444Z,17.97
2017-09-26T16:08:27.681Z,17.93
2017-09-26T16:09:33.836Z,17.92
2017-09-26T16:10:40.037Z,17.90
2017-09-26T16:11:46.155Z,17.88
2017-09-26T16:12:54.679Z,17.85
2017-09-26T16:14:01.883Z,17.83
2017-09-26T16:15:10.046Z,17.79
2017-09-26T16:16:18.024Z,17.75
2017-09-26T16:17:24.438Z,17.75
2017-09-26T16:18:31.302Z,17.74
2017-09-26T16:19:39.219Z,17.70
2017-09-26T16:20:46.126Z,17.69
2017-09-26T16:21:53.147Z,17.67
2017-09-26T16:23:00.308Z,17.66
2017-09-26T16:24:06.538Z,17.61
2017-09-26T16:25:13.643Z,17.51
2017-09-26T16:26:20.444Z,17.49
2017-09-26T16:27:28.437Z,17.49
2017-09-26T16:28:37.581Z,17.45
2017-09-26T16:29:47.384Z,17.40
2017-09-26T16:30:56.213Z,17.41
2017-09-26T16:32:02.916Z,17.42
2017-09-26T16:33:11.318Z,17.40
2017-09-26T16:34:17.705Z,17.40
2017-09-26T16:35:24.320Z,17.39
2017-09-26T16:36:31.531Z,17.36
2017-09-26T16:37:39.029Z,17.35
2017-09-26T16:38:46.021Z,17.35
2017-09-26T16:39:54.237Z,17.33
2017-09-26T16:41:01.179Z,17.31
2017-09-26T16:42:08.419Z,17.29
2017-09-26T16:43:16.075Z,17.28
2017-09-26T16:44:23.331Z,17.27
2017-09-26T16:45:29.380Z,17.24
2017-09-26T16:46:36.199Z,17.20
2017-09-26T16:47:44.426Z,17.19
2017-09-26T16:48:52.461Z,17.17
2017-09-26T16:50:00.057Z,17.16
2017-09-26T16:51:07.775Z,17.15
2017-09-26T16:52:15.513Z,17.12
2017-09-26T16:53:23.155Z,17.13
2017-09-26T16:54:30.171Z,17.10
2017-09-26T16:55:38.878Z,17.10
2017-09-26T16:56:48.234Z,17.10
2017-09-26T16:57:56.572Z,17.09
2017-09-26T16:59:04.844Z,17.06
2017-09-26T17:00:12.244Z,17.02
2017-09-26T17:01:20.010Z,17.03
2017-09-26T17:02:26.748Z,17.03
2017-09-26T17:03:34.391Z,17.05
2017-09-26T17:04:42.239Z,17.04
2017-09-26T17:05:48.733Z,17.03
2017-09-26T17:06:57.737Z,17.04
2017-09-26T17:08:04.989Z,17.02
2017-09-26T17:09:11.956Z,17.00
2017-09-26T17:10:18.869Z,16.99
2017-09-26T17:11:25.066Z,16.96
2017-09-26T17:12:32.428Z,16.94
2017-09-26T17:13:38.612Z,16.92
2017-09-26T17:14:44.855Z,16.90
2017-09-26T17:15:51.096Z,16.89
2017-09-26T17:16:59.017Z,16.89
2017-09-26T17:18:04.964Z,16.89
2017-09-26T17:19:11.187Z,16.89
2017-09-26T17:20:18.126Z,16.87
2017-09-26T17:21:24.328Z,16.85
2017-09-26T17:22:31.104Z,16.85
2017-09-26T17:23:37.347Z,16.85
2017-09-26T17:24:44.299Z,16.85
2017-09-26T17:25:50.397Z,16.82
2017-09-26T17:26:56.680Z,16.82
2017-09-26T17:28:02.758Z,16.83
2017-09-26T17:29:09.165Z,16.83
2017-09-26T17:30:15.240Z,16.80
2017-09-26T17:31:21.369Z,16.79
2017-09-26T17:32:28.495Z,16.78
2017-09-26T17:33:35.603Z,16.77
2017-09-26T17:34:42.548Z,16.75
2017-09-26T17:35:48.796Z,16.74
2017-09-26T17:36:54.977Z,16.72
2017-09-26T17:38:02.711Z,16.72
2017-09-26T17:39:09.206Z,16.71
2017-09-26T17:40:15.299Z,16.67
2017-09-26T17:41:21.220Z,16.67
2017-09-26T17:42:27.460Z,16.66
2017-09-26T17:43:34.523Z,16.64
2017-09-26T17:44:41.170Z,16.65
2017-09-26T17:45:47.733Z,16.63
2017-09-26T17:46:54.164Z,16.63
2017-09-26T17:48:00.346Z,16.62
2017-09-26T17:49:06.508Z,16.61
2017-09-26T17:50:12.824Z,16.61
2017-09-26T17:51:20.569Z,16.59
2017-09-26T17:52:27.058Z,16.59
2017-09-26T17:53:33.109Z,16.54
2017-09-26T17:54:39.180Z,16.55
2017-09-26T17:55:45.636Z,16.54
2017-09-26T17:56:51.742Z,16.55
2017-09-26T17:57:58.310Z,16.55
2017-09-26T17:59:05.140Z,16.54
2017-09-26T18:00:11.548Z,16.52
2017-09-26T18:01:17.872Z,16.52
2017-09-26T18:02:28.856Z,16.53
2017-09-26T18:03:37.352Z,16.55
2017-09-26T18:04:48.260Z,16.52
2017-09-26T18:05:56.987Z,16.50
2017-09-26T18:07:03.186Z,16.47
2017-09-26T18:08:10.318Z,16.46
2017-09-26T18:09:16.763Z,16.44
2017-09-26T18:10:23.829Z,16.45
2017-09-26T18:11:34.959Z,16.44
2017-09-26T18:12:43.012Z,16.39
2017-09-26T18:13:49.497Z,16.39
2017-09-26T18:14:57.023Z,16.38
2017-09-26T18:16:03.562Z,16.40
2017-09-26T18:17:09.564Z,16.38
2017-09-26T18:18:16.388Z,16.35
2017-09-26T18:19:23.636Z,16.36
2017-09-26T18:20:29.928Z,16.34
2017-09-26T18:21:37.616Z,16.33
2017-09-26T18:22:43.724Z,16.33
2017-09-26T18:23:50.202Z,16.33
2017-09-26T18:24:56.875Z,16.32
2017-09-26T18:26:03.028Z,16.32
2017-09-26T18:27:09.482Z,16.32
2017-09-26T18:28:17.779Z,16.34
2017-09-26T18:29:24.204Z,16.36
2017-09-26T18:30:30.690Z,16.35
2017-09-26T18:31:37.250Z,16.30
2017-09-26T18:32:43.376Z,16.30
2017-09-26T18:33:50.332Z,16.29
2017-09-26T18:34:57.927Z,16.24
2017-09-26T18:36:04.471Z,16.17
2017-09-26T18:37:11.976Z,16.16
2017-09-26T18:38:18.397Z,16.13
2017-09-26T18:39:25.336Z,16.12
2017-09-26T18:40:33.864Z,16.09
2017-09-26T18:41:42.021Z,16.08
2017-09-26T18:42:49.341Z,16.08
2017-09-26T18:43:57.185Z,16.04
2017-09-26T18:45:04.408Z,16.03
2017-09-26T18:46:13.661Z,15.92
2017-09-26T18:47:23.596Z,15.91
2017-09-26T18:48:31.973Z,15.84
2017-09-26T18:49:40.529Z,15.84
2017-09-26T18:50:48.601Z,15.81
2017-09-26T18:51:56.115Z,15.79
2017-09-26T18:53:03.761Z,15.76
2017-09-26T18:54:13.141Z,15.69
2017-09-26T18:55:21.821Z,15.68
2017-09-26T18:56:29.346Z,15.66
2017-09-26T18:57:37.849Z,15.65
2017-09-26T18:58:47.299Z,15.61
2017-09-26T18:59:56.165Z,15.60
2017-09-26T19:01:04.697Z,15.58
2017-09-26T19:02:12.730Z,15.56
2017-09-26T19:03:20.334Z,15.53
2017-09-26T19:04:29.130Z,15.52
2017-09-26T19:05:37.533Z,15.48
2017-09-26T19:06:45.000Z,15.45
2017-09-26T19:07:53.572Z,15.44
2017-09-26T19:09:02.341Z,15.40
2017-09-26T19:10:11.038Z,15.37
2017-09-26T19:11:18.756Z,15.36
2017-09-26T19:12:25.949Z,15.35
2017-09-26T19:13:33.757Z,15.33
2017-09-26T19:14:41.396Z,15.30
2017-09-26T19:15:48.517Z,15.29
2017-09-26T19:16:55.960Z,15.28
2017-09-26T19:18:03.170Z,15.22
2017-09-26T19:19:10.964Z,15.21
2017-09-26T19:20:18.738Z,15.19
2017-09-26T19:21:25.485Z,15.17
2017-09-26T19:22:32.970Z,15.15
2017-09-26T19:23:41.867Z,15.13
2017-09-26T19:24:51.590Z,15.09
2017-09-26T19:25:59.499Z,15.08
2017-09-26T19:27:08.439Z,15.05
2017-09-26T19:28:16.095Z,15.03
2017-09-26T19:29:24.243Z,15.00
2017-09-26T19:30:31.714Z,14.99
2017-09-26T19:31:39.212Z,14.98
2017-09-26T19:32:47.432Z,14.95
2017-09-26T19:33:55.804Z,14.94
2017-09-26T19:35:03.012Z,14.88
2017-09-26T19:36:12.622Z,14.88
2017-09-26T19:37:19.862Z,14.85
2017-09-26T19:38:27.474Z,14.83
2017-09-26T19:39:35.360Z,14.78
2017-09-26T19:40:43.081Z,14.77
2017-09-26T19:41:51.318Z,14.75
2017-09-26T19:42:58.668Z,14.73
2017-09-26T19:44:06.364Z,14.70
2017-09-26T19:45:14.066Z,14.69
2017-09-26T19:46:21.607Z,14.71
2017-09-26T19:47:29.963Z,14.70
2017-09-26T19:48:37.586Z,14.71
2017-09-26T19:49:45.041Z,14.68
2017-09-26T19:50:56.430Z,14.63
2017-09-26T19:52:03.009Z,14.56
2017-09-26T19:53:11.701Z,14.54
2017-09-26T19:54:19.241Z,14.56
2017-09-26T19:55:29.742Z,14.59
2017-09-26T19:56:37.741Z,14.57
2017-09-26T19:57:45.920Z,14.56
2017-09-26T19:58:53.204Z,14.56
2017-09-26T20:00:01.140Z,14.55
2017-09-26T20:01:08.143Z,14.56
2017-09-26T20:02:15.639Z,14.55
2017-09-26T20:03:21.718Z,14.54
2017-09-26T20:04:28.986Z,14.54
2017-09-26T20:05:36.820Z,14.53
2017-09-26T20:06:44.191Z,14.51
2017-09-26T20:07:50.968Z,14.51
2017-09-26T20:08:59.875Z,14.52
2017-09-26T20:10:07.607Z,14.55
2017-09-26T20:11:16.316Z,14.57
2017-09-26T20:12:24.080Z,14.58
2017-09-26T20:13:31.761Z,14.59
2017-09-26T20:14:39.324Z,14.59
2017-09-26T20:15:47.419Z,14.58
2017-09-26T20:16:54.543Z,14.60
2017-09-26T20:18:01.760Z,14.59
2017-09-26T20:19:10.671Z,14.55
2017-09-26T20:20:18.098Z,14.56
2017-09-26T20:21:25.560Z,14.54
2017-09-26T20:22:32.779Z,14.50
2017-09-26T20:23:40.122Z,14.51
2017-09-26T20:24:48.140Z,14.47
2017-09-26T20:25:55.489Z,14.43
2017-09-26T20:27:03.447Z,14.39
2017-09-26T20:28:10.649Z,14.33
2017-09-26T20:29:17.213Z,14.30
2017-09-26T20:30:24.896Z,14.27
2017-09-26T20:31:32.282Z,14.25
2017-09-26T20:32:40.856Z,14.23
2017-09-26T20:33:47.698Z,14.22
2017-09-26T20:34:55.391Z,14.21
2017-09-26T20:36:02.453Z,14.16
2017-09-26T20:37:09.382Z,14.12
2017-09-26T20:38:17.256Z,14.06
2017-09-26T20:39:24.443Z,14.03
2017-09-26T20:40:31.229Z,14.02
2017-09-26T20:41:38.151Z,14.01
2017-09-26T20:42:44.345Z,14.01
2017-09-26T20:43:50.507Z,13.99
2017-09-26T20:44:57.051Z,13.91
2017-09-26T20:46:03.120Z,13.90
2017-09-26T20:47:09.301Z,13.92
2017-09-26T20:48:18.339Z,13.89
2017-09-26T20:49:24.543Z,13.89
2017-09-26T20:50:31.883Z,13.86
2017-09-26T20:51:38.807Z,13.80
2017-09-26T20:52:45.842Z,13.82
2017-09-26T20:53:53.550Z,13.78
2017-09-26T20:55:01.222Z,13.72
2017-09-26T20:56:09.459Z,13.71
2017-09-26T20:57:16.302Z,13.69
2017-09-26T20:58:23.563Z,13.69
2017-09-26T20:59:32.507Z,13.66
2017-09-26T21:00:40.476Z,13.64
2017-09-26T21:01:49.460Z,13.65
2017-09-26T21:02:57.095Z,13.65
2017-09-26T21:04:04.197Z,13.63
2017-09-26T21:05:11.957Z,13.61
2017-09-26T21:06:19.480Z,13.60
2017-09-26T21:07:27.234Z,13.59
2017-09-26T21:08:35.135Z,13.59
2017-09-26T21:09:43.750Z,13.56
2017-09-26T21:10:51.263Z,13.54
2017-09-26T21:12:00.736Z,13.51
2017-09-26T21:13:08.437Z,13.51
2017-09-26T21:14:16.150Z,13.49
2017-09-26T21:15:23.864Z,13.48
2017-09-26T21:16:33.735Z,13.41
2017-09-26T21:17:39.951Z,13.43
2017-09-26T21:18:46.152Z,13.43
2017-09-26T21:19:53.300Z,13.43
2017-09-26T21:21:00.440Z,13.36
2017-09-26T21:22:06.670Z,13.30
2017-09-26T21:23:12.825Z,13.31
2017-09-26T21:24:19.098Z,13.34
2017-09-26T21:25:25.848Z,13.30
2017-09-26T21:26:32.275Z,13.29
2017-09-26T21:27:38.539Z,13.26
2017-09-26T21:28:44.695Z,13.25
2017-09-26T21:29:51.662Z,13.24
2017-09-26T21:30:57.933Z,13.22
2017-09-26T21:32:04.178Z,13.24
2017-09-26T21:33:10.125Z,13.24
2017-09-26T21:34:16.259Z,13.24
2017-09-26T21:35:24.159Z,13.21
2017-09-26T21:36:31.630Z,13.23
2017-09-26T21:37:38.112Z,13.22
2017-09-26T21:38:44.408Z,13.18
2017-09-26T21:39:50.633Z,13.18
2017-09-26T21:40:57.032Z,13.19
2017-09-26T21:42:03.463Z,13.17
2017-09-26T21:43:09.593Z,13.19
2017-09-26T21:44:15.761Z,13.19
2017-09-26T21:45:22.736Z,13.17
2017-09-26T21:46:28.873Z,13.13
2017-09-26T21:47:35.060Z,13.14
2017-09-26T21:48:41.272Z,13.10
2017-09-26T21:49:47.236Z,13.08
2017-09-26T21:50:53.200Z,13.09
2017-09-26T21:51:59.490Z,13.08
2017-09-26T21:53:05.928Z,13.07
2017-09-26T21:54:12.136Z,13.07
2017-09-26T21:55:18.852Z,13.07
2017-09-26T21:56:25.119Z,13.02
2017-09-26T21:57:33.260Z,13.01
2017-09-26T21:58:39.425Z,12.99
2017-09-26T21:59:45.648Z,13.02
2017-09-26T22:00:53.253Z,12.97
2017-09-26T22:02:01.533Z,12.92
2017-09-26T22:03:08.608Z,12.93
2017-09-26T22:04:14.688Z,12.96
2017-09-26T22:05:20.671Z,12.95
2017-09-26T22:06:26.936Z,12.93
2017-09-26T22:07:34.676Z,12.86
2017-09-26T22:08:40.941Z,12.88
2017-09-26T22:09:47.509Z,12.85
2017-09-26T22:10:53.704Z,12.86
2017-09-26T22:11:59.909Z,12.85
2017-09-26T22:13:06.081Z,12.83
2017-09-26T22:14:12.358Z,12.81
2017-09-26T22:15:18.551Z,12.82
2017-09-26T22:16:24.916Z,12.81
2017-09-26T22:17:31.182Z,12.84
2017-09-26T22:18:37.364Z,12.80
2017-09-26T22:19:43.325Z,12.83
2017-09-26T22:20:50.159Z,12.81
2017-09-26T22:21:56.372Z,12.79
2017-09-26T22:23:02.680Z,12.82
2017-09-26T22:24:08.948Z,12.84
2017-09-26T22:25:15.107Z,12.81
2017-09-26T22:26:22.702Z,12.80
2017-09-26T22:27:28.884Z,12.76
2017-09-26T22:28:35.191Z,12.72
2017-09-26T22:29:41.512Z,12.72
2017-09-26T22:30:47.809Z,12.71
2017-09-26T22:31:54.847Z,12.70
2017-09-26T22:33:01.134Z,12.68
2017-09-26T22:34:08.186Z,12.65
2017-09-26T22:35:14.347Z,12.66
2017-09-26T22:36:21.463Z,12.68
2017-09-26T22:37:27.654Z,12.70
2017-09-26T22:38:33.843Z,12.68
2017-09-26T22:39:40.178Z,12.68
2017-09-26T22:40:46.879Z,12.64
2017-09-26T22:41:53.089Z,12.68
2017-09-26T22:42:59.347Z,12.70
2017-09-26T22:44:05.588Z,12.69
2017-09-26T22:45:12.124Z,12.72
2017-09-26T22:46:20.441Z,12.76
2017-09-26T22:47:26.817Z,12.76
2017-09-26T22:48:32.947Z,12.72
2017-09-26T22:49:39.645Z,12.71
2017-09-26T22:50:46.536Z,12.74
2017-09-26T22:51:52.712Z,12.76
2017-09-26T22:52:59.110Z,12.79
2017-09-26T22:54:07.183Z,12.80
2017-09-26T22:55:14.024Z,12.81
2017-09-26T22:56:20.993Z,12.78
2017-09-26T22:57:27.152Z,12.71
2017-09-26T22:58:33.580Z,12.66
2017-09-26T22:59:40.347Z,12.70
2017-09-26T23:00:47.319Z,12.73
2017-09-26T23:01:53.411Z,12.73
2017-09-26T23:03:00.872Z,12.73
2017-09-26T23:04:06.896Z,12.70
2017-09-26T23:05:13.735Z,12.68
2017-09-26T23:06:19.335Z,12.71
2017-09-26T23:07:26.979Z,12.73
2017-09-26T23:08:32.987Z,12.74
2017-09-26T23:09:39.137Z,12.71
2017-09-26T23:10:45.343Z,12.69
2017-09-26T23:11:52.679Z,12.69
2017-09-26T23:12:59.045Z,12.65
2017-09-26T23:14:05.419Z,12.65
2017-09-26T23:15:12.051Z,12.62
2017-09-26T23:16:18.011Z,12.59
2017-09-26T23:17:24.528Z,12.60
2017-09-26T23:18:31.351Z,12.62
2017-09-26T23:19:39.397Z,12.60
2017-09-26T23:20:45.508Z,12.59
2017-09-26T23:21:51.680Z,12.53
2017-09-26T23:22:57.773Z,12.55
2017-09-26T23:24:05.081Z,12.52
2017-09-26T23:25:11.807Z,12.56
2017-09-26T23:26:18.002Z,12.60
2017-09-26T23:27:24.165Z,12.60
2017-09-26T23:28:30.340Z,12.60
2017-09-26T23:29:36.648Z,12.59
2017-09-26T23:30:42.863Z,12.55
2017-09-26T23:31:49.205Z,12.58
2017-09-26T23:32:55.836Z,12.57
2017-09-26T23:34:03.060Z,12.55
2017-09-26T23:35:09.281Z,12.49
2017-09-26T23:36:15.549Z,12.44
2017-09-26T23:37:21.744Z,12.39
2017-09-26T23:38:29.318Z,12.33
2017-09-26T23:39:35.561Z,12.28
2017-09-26T23:40:41.748Z,12.27
2017-09-26T23:41:47.912Z,12.34
2017-09-26T23:42:54.272Z,12.36
2017-09-26T23:44:00.471Z,12.29
2017-09-26T23:45:06.889Z,12.27
2017-09-26T23:46:13.063Z,12.18
2017-09-26T23:47:20.248Z,12.17
2017-09-26T23:48:26.492Z,12.09
2017-09-26T23:49:32.596Z,12.14
2017-09-26T23:50:39.609Z,12.10
2017-09-26T23:51:45.742Z,12.09
2017-09-26T23:52:51.953Z,12.01
2017-09-26T23:53:58.087Z,11.95
2017-09-26T23:55:04.359Z,12.04
2017-09-26T23:56:10.549Z,12.07
2017-09-26T23:57:16.607Z,12.17
2017-09-26T23:58:22.884Z,12.12
2017-09-26T23:59:29.015Z,12.11
